Time;durP1;ratioP1;P1;durP2;ratioP2;P2;SDS_P1;SDS_P2;PMS_P1;PMS_P2;Temp;Humidity;BMP_temperature;BMP_pressure;BME280_temperature;BME280_humidity;BME280_pressure;Samples;Min_cycle;Max_cycle;Signal;HPM_P1;HPM_P2
2022/09/14 00:01:00;;;;;;;;;;;;;;;14.96;100.00;99190.19;3051846;19;19948;-49
2022/09/14 00:02:24;;;;;;;;;;;;;;;14.90;100.00;99190.78;3042968;19;19939;-49
2022/09/14 00:03:26;;;;;;;;;;;;;;;14.85;100.00;99187.75;3042453;19;19967;-50
2022/09/14 00:04:31;;;;;;;;;;;;;;;14.78;100.00;99182.13;3042863;19;20291;-53
2022/09/14 00:05:35;;;;;;;;;;;;;;;14.72;100.00;99186.28;3045842;19;19926;-50
2022/09/14 00:06:40;;;;;;;;;;;;;;;14.67;100.00;99190.41;3045136;19;20417;-50
2022/09/14 00:07:42;;;;;;;;;;;;;;;14.58;100.00;99178.75;3046434;19;19942;-50
2022/09/14 00:08:46;;;;;;;;;;;;;;;14.59;100.00;99182.28;3046593;19;21175;-52
2022/09/14 00:09:50;;;;;;;;;;;;;;;14.53;100.00;99181.03;3052439;19;19994;-51
2022/09/14 00:10:54;;;;;;;;;;;;;;;14.49;100.00;99179.63;3051970;19;19927;-52
2022/09/14 00:11:56;;;;;;;;;;;;;;;14.48;100.00;99169.06;3052186;19;20176;-48
2022/09/14 00:13:01;;;;;;;;;;;;;;;14.46;100.00;99169.22;3052061;19;20296;-51
2022/09/14 00:14:04;;;;;;;;;;;;;;;14.45;100.00;99164.84;3052284;19;19927;-53
2022/09/14 00:15:08;;;;;;;;;;;;;;;14.45;100.00;99170.22;3052578;19;19923;-49
2022/09/14 00:16:11;;;;;;;;;;;;;;;14.43;100.00;99161.47;3052168;19;20382;-50
2022/09/14 00:17:16;;;;;;;;;;;;;;;14.43;100.00;99155.25;3051590;19;20346;-49
2022/09/14 00:18:18;;;;;;;;;;;;;;;14.43;100.00;99144.50;3051997;19;19986;-48
2022/09/14 00:19:23;;;;;;;;;;;;;;;14.42;100.00;99138.28;3052105;19;19943;-50
2022/09/14 00:20:25;;;;;;;;;;;;;;;14.41;100.00;99144.66;3052557;19;19914;-51
2022/09/14 00:21:30;;;;;;;;;;;;;;;14.39;100.00;99141.25;3051701;19;19923;-50
2022/09/14 00:22:32;;;;;;;;;;;;;;;14.36;100.00;99133.53;3051856;19;19919;-51
2022/09/14 00:23:37;;;;;;;;;;;;;;;14.33;100.00;99134.66;3052294;19;19939;-51
2022/09/14 00:24:38;;;;;;;;;;;;;;;14.30;100.00;99139.47;3042881;19;19991;-50
2022/09/14 00:25:43;;;;;;;;;;;;;;;14.25;100.00;99136.41;3040368;19;19923;-51
2022/09/14 00:26:45;;;;;;;;;;;;;;;14.21;100.00;99129.66;3041400;19;20804;-49
2022/09/14 00:27:49;;;;;;;;;;;;;;;14.16;100.00;99134.59;3043339;19;19975;-51
2022/09/14 00:28:52;;;;;;;;;;;;;;;14.11;100.00;99128.88;3044470;19;20354;-49
2022/09/14 00:29:57;;;;;;;;;;;;;;;14.07;100.00;99128.31;3045459;19;20376;-51
2022/09/14 00:30:59;;;;;;;;;;;;;;;14.01;100.00;99124.38;3045655;19;20355;-49
2022/09/14 00:32:03;;;;;;;;;;;;;;;13.97;100.00;99128.38;3051748;19;19921;-48
2022/09/14 00:33:06;;;;;;;;;;;;;;;13.94;100.00;99128.66;3052297;19;20019;-49
2022/09/14 00:34:10;;;;;;;;;;;;;;;13.90;100.00;99116.53;3051790;19;20019;-51
2022/09/14 00:35:12;;;;;;;;;;;;;;;13.89;100.00;99119.38;3050768;19;20279;-49
2022/09/14 00:36:18;;;;;;;;;;;;;;;13.88;100.00;99113.19;3051618;19;19919;-51
2022/09/14 00:37:20;;;;;;;;;;;;;;;13.88;100.00;99107.81;3052597;19;20476;-50
2022/09/14 00:38:24;;;;;;;;;;;;;;;13.90;100.00;99111.16;3051149;19;19926;-52
2022/09/14 00:39:29;;;;;;;;;;;;;;;13.92;100.00;99093.09;3050599;19;19923;-51
2022/09/14 00:40:31;;;;;;;;;;;;;;;13.95;100.00;99094.66;3051267;19;19923;-51
2022/09/14 00:41:36;;;;;;;;;;;;;;;13.99;100.00;99090.69;3052258;19;20001;-49
2022/09/14 00:42:38;;;;;;;;;;;;;;;14.04;100.00;99077.66;3052174;19;19922;-51
2022/09/14 00:43:55;;;;;;;;;;;;;;;14.09;100.00;99082.56;3051624;19;20030;-48
2022/09/14 00:44:58;;;;;;;;;;;;;;;14.16;100.00;99072.91;3050903;19;19963;-51
2022/09/14 00:46:03;;;;;;;;;;;;;;;14.22;100.00;99070.47;3051608;19;19967;-50
2022/09/14 00:47:05;;;;;;;;;;;;;;;14.27;100.00;99065.47;3042679;19;20453;-49
2022/09/14 00:48:09;;;;;;;;;;;;;;;14.32;100.00;99060.50;3040550;19;20756;-51
2022/09/14 00:49:12;;;;;;;;;;;;;;;14.39;100.00;99058.03;3040863;19;20390;-51
2022/09/14 00:50:17;;;;;;;;;;;;;;;14.45;100.00;99052.09;3043402;19;19978;-49
2022/09/14 00:51:18;;;;;;;;;;;;;;;14.51;100.00;99047.94;3044975;19;19952;-49
2022/09/14 00:52:27;;;;;;;;;;;;;;;14.55;100.00;99039.44;3045836;19;20021;-50
2022/09/14 00:53:29;;;;;;;;;;;;;;;14.62;100.00;99045.88;3045889;19;19968;-51
2022/09/14 00:54:34;;;;;;;;;;;;;;;14.68;100.00;99041.72;3050625;19;20334;-48
2022/09/14 00:55:36;;;;;;;;;;;;;;;14.71;100.00;99036.91;3051240;19;19974;-49
2022/09/14 00:56:40;;;;;;;;;;;;;;;14.74;100.00;99036.56;3050607;19;19940;-48
2022/09/14 00:57:43;;;;;;;;;;;;;;;14.79;100.00;99030.72;3050991;19;20486;-50
2022/09/14 00:58:49;;;;;;;;;;;;;;;14.84;100.00;99035.66;3051989;19;20071;-50
2022/09/14 00:59:52;;;;;;;;;;;;;;;14.88;100.00;99027.09;3050878;19;19935;-50
2022/09/14 01:00:57;;;;;;;;;;;;;;;14.92;100.00;99027.63;3050560;19;19939;-50
2022/09/14 01:01:59;;;;;;;;;;;;;;;14.94;100.00;99028.31;3050800;19;19926;-48
2022/09/14 01:03:04;;;;;;;;;;;;;;;14.98;100.00;99027.84;3051727;19;19930;-51
2022/09/14 01:04:05;;;;;;;;;;;;;;;15.01;100.00;99026.69;3051974;19;20394;-51
2022/09/14 01:05:10;;;;;;;;;;;;;;;15.05;100.00;99028.06;3051486;19;20305;-51
2022/09/14 01:06:28;;;;;;;;;;;;;;;15.07;100.00;99020.69;3051211;19;19927;-49
2022/09/14 01:07:40;;;;;;;;;;;;;;;15.10;100.00;99025.72;3050138;19;19940;-50
2022/09/14 01:08:42;;;;;;;;;;;;;;;15.12;100.00;99024.56;3052924;19;20038;-51
2022/09/14 01:09:59;;;;;;;;;;;;;;;15.14;100.00;99029.78;3045225;19;19937;-50
2022/09/14 01:11:07;;;;;;;;;;;;;;;15.17;100.00;99028.63;3044291;19;20569;-49
2022/09/14 01:12:22;;;;;;;;;;;;;;;15.18;100.00;99028.47;3044852;19;19918;-51
2022/09/14 01:13:27;;;;;;;;;;;;;;;15.20;100.00;99037.22;3047408;19;19923;-49
2022/09/14 01:14:32;;;;;;;;;;;;;;;15.21;100.00;99028.16;3047594;19;19930;-48
2022/09/14 01:15:53;;;;;;;;;;;;;;;15.22;100.00;99029.81;3047393;19;19922;-49
2022/09/14 01:17:07;;;;;;;;;;;;;;;15.25;100.00;99040.25;3054165;19;19923;-49
2022/09/14 01:18:15;;;;;;;;;;;;;;;15.27;100.00;99040.09;3053267;19;19930;-50
2022/09/14 01:19:26;;;;;;;;;;;;;;;15.28;100.00;99039.94;3054197;19;19915;-49
2022/09/14 01:20:35;;;;;;;;;;;;;;;15.30;100.00;99037.97;3053559;19;20255;-51
2022/09/14 01:21:40;;;;;;;;;;;;;;;15.30;100.00;99035.25;3053399;19;20304;-48
2022/09/14 01:22:45;;;;;;;;;;;;;;;15.33;100.00;99031.44;3054445;19;19919;-50
2022/09/14 01:23:49;;;;;;;;;;;;;;;15.35;100.00;99035.59;3054196;19;19985;-50
2022/09/14 01:24:53;;;;;;;;;;;;;;;15.36;100.00;99037.28;3054640;19;19919;-52
2022/09/14 01:25:57;;;;;;;;;;;;;;;15.38;100.00;99035.31;3055482;19;19934;-51
2022/09/14 01:27:21;;;;;;;;;;;;;;;15.39;100.00;99036.97;3055643;19;19920;-49
2022/09/14 01:28:25;;;;;;;;;;;;;;;15.40;100.00;99038.66;3053865;19;19919;-51
2022/09/14 01:29:32;;;;;;;;;;;;;;;15.40;100.00;99044.06;3053276;19;20307;-50
2022/09/14 01:30:34;;;;;;;;;;;;;;;15.39;100.00;99054.97;3053575;19;20373;-52
2022/09/14 01:31:40;;;;;;;;;;;;;;;15.39;100.00;99045.06;3048318;19;20047;-51
2022/09/14 01:32:57;;;;;;;;;;;;;;;15.37;100.00;99055.13;3044209;19;20059;-48
2022/09/14 01:34:04;;;;;;;;;;;;;;;15.36;100.00;99064.19;3044456;19;19922;-49
2022/09/14 01:35:26;;;;;;;;;;;;;;;15.36;100.00;99058.81;3045746;19;20575;-52
2022/09/14 01:36:28;;;;;;;;;;;;;;;15.37;100.00;99055.13;3047061;19;20339;-51
2022/09/14 01:37:35;;;;;;;;;;;;;;;15.38;100.00;99056.81;3047455;19;20348;-51
2022/09/14 01:38:38;;;;;;;;;;;;;;;15.39;100.00;99058.50;3047693;19;20013;-51
2022/09/14 01:39:47;;;;;;;;;;;;;;;15.41;100.00;99056.50;3054594;19;20038;-49
2022/09/14 01:40:49;;;;;;;;;;;;;;;15.44;100.00;99049.97;3053297;19;20367;-49
2022/09/14 01:41:53;;;;;;;;;;;;;;;15.45;100.00;99047.13;3053695;19;19918;-48
2022/09/14 01:43:00;;;;;;;;;;;;;;;15.47;100.00;99055.84;3053687;19;19923;-51
2022/09/14 01:44:05;;;;;;;;;;;;;;;15.49;100.00;99048.44;3053788;19;19950;-48
2022/09/14 01:45:08;;;;;;;;;;;;;;;15.50;100.00;99047.44;3052752;19;20030;-49
2022/09/14 01:46:14;;;;;;;;;;;;;;;15.53;100.00;99048.16;3052864;19;20011;-52
2022/09/14 01:47:19;;;;;;;;;;;;;;;15.53;100.00;99048.16;3053515;19;19926;-48
2022/09/14 01:48:25;;;;;;;;;;;;;;;15.53;100.00;99045.44;3052325;19;20319;-51
2022/09/14 01:49:31;;;;;;;;;;;;;;;15.54;100.00;99039.06;3054023;19;20003;-49
2022/09/14 01:50:35;;;;;;;;;;;;;;;15.54;100.00;99041.75;3053101;19;20465;-49
2022/09/14 01:51:37;;;;;;;;;;;;;;;15.54;100.00;99039.91;3053093;19;19939;-51
2022/09/14 01:52:46;;;;;;;;;;;;;;;15.52;100.00;99041.91;3054562;19;20035;-51
2022/09/14 01:53:59;;;;;;;;;;;;;;;15.46;100.00;99040.72;3053107;19;19922;-48
2022/09/14 01:55:23;;;;;;;;;;;;;;;15.42;100.00;99035.81;3044575;19;19923;-52
2022/09/14 01:56:26;;;;;;;;;;;;;;;15.38;100.00;99038.00;3043996;19;19927;-52
2022/09/14 01:57:36;;;;;;;;;;;;;;;15.37;100.00;99033.59;3044713;19;19923;-49
2022/09/14 01:58:49;;;;;;;;;;;;;;;15.35;100.00;99030.22;3046530;19;19926;-48
2022/09/14 01:59:55;;;;;;;;;;;;;;;15.35;100.00;99032.91;3046708;19;19934;-49
2022/09/14 02:00:56;;;;;;;;;;;;;;;15.33;100.00;99026.88;3046841;19;20347;-51
2022/09/14 02:02:05;;;;;;;;;;;;;;;15.31;100.00;99023.50;3052785;19;20278;-50
2022/09/14 02:03:11;;;;;;;;;;;;;;;15.32;100.00;99019.81;3053404;19;20010;-50
2022/09/14 02:04:16;;;;;;;;;;;;;;;15.31;100.00;99018.13;3054623;19;19915;-51
2022/09/14 02:05:20;;;;;;;;;;;;;;;15.32;100.00;99017.13;3054028;19;20655;-48
2022/09/14 02:06:26;;;;;;;;;;;;;;;15.32;100.00;99013.59;3052991;19;20031;-52
2022/09/14 02:07:28;;;;;;;;;;;;;;;15.31;100.00;99010.06;3053412;19;19922;-51
2022/09/14 02:08:33;;;;;;;;;;;;;;;15.33;100.00;99008.06;3052088;19;19998;-52
2022/09/14 02:09:34;;;;;;;;;;;;;;;15.36;100.00;99013.09;3053371;19;19923;-47
2022/09/14 02:10:39;;;;;;;;;;;;;;;15.38;100.00;99008.41;3052678;19;20371;-47
2022/09/14 02:11:41;;;;;;;;;;;;;;;15.40;100.00;99010.94;3053113;19;20811;-48
2022/09/14 02:12:45;;;;;;;;;;;;;;;15.33;100.00;98994.63;3052950;19;19930;-51
2022/09/14 02:13:47;;;;;;;;;;;;;;;15.40;100.00;99006.41;3053673;19;19943;-48
2022/09/14 02:14:52;;;;;;;;;;;;;;;15.42;100.00;98992.81;3054275;19;19923;-51
2022/09/14 02:15:53;;;;;;;;;;;;;;;15.44;100.00;98991.66;3052701;19;19995;-50
2022/09/14 02:16:58;;;;;;;;;;;;;;;15.44;100.00;98994.34;3045452;19;20261;-51
2022/09/14 02:18:00;;;;;;;;;;;;;;;15.46;100.00;98995.00;3042355;19;19942;-52
2022/09/14 02:19:05;;;;;;;;;;;;;;;15.46;100.00;99000.38;3042662;19;19982;-51
2022/09/14 02:20:09;;;;;;;;;;;;;;;15.46;100.00;98995.00;3044561;19;20220;-52
2022/09/14 02:21:15;;;;;;;;;;;;;;;15.49;100.00;98989.31;3046304;19;20393;-50
2022/09/14 02:22:17;;;;;;;;;;;;;;;15.52;100.00;98993.53;3046075;19;19955;-51
2022/09/14 02:23:22;;;;;;;;;;;;;;;15.56;100.00;99000.31;3046798;19;19919;-52
2022/09/14 02:24:24;;;;;;;;;;;;;;;15.61;100.00;99002.50;3052238;19;20369;-51
2022/09/14 02:25:29;;;;;;;;;;;;;;;15.63;100.00;98990.56;3053374;19;19926;-51
2022/09/14 02:26:31;;;;;;;;;;;;;;;15.68;100.00;98990.94;3052382;19;19951;-50
2022/09/14 02:27:36;;;;;;;;;;;;;;;15.71;100.00;98995.97;3052307;19;20347;-51
2022/09/14 02:28:38;;;;;;;;;;;;;;;15.75;100.00;99000.03;3052712;19;20006;-50
2022/09/14 02:29:42;;;;;;;;;;;;;;;15.79;100.00;98995.16;3053355;19;19931;-48
2022/09/14 02:30:50;;;;;;;;;;;;;;;15.83;100.00;99002.72;3052218;19;19918;-50
2022/09/14 02:31:59;;;;;;;;;;;;;;;15.86;100.00;98996.19;3053096;19;19986;-50
2022/09/14 02:33:07;;;;;;;;;;;;;;;15.90;100.00;99002.94;3053733;19;19993;-52
2022/09/14 02:34:19;;;;;;;;;;;;;;;15.93;100.00;98996.38;3053472;19;19927;-49
2022/09/14 02:35:26;;;;;;;;;;;;;;;15.95;100.00;98997.03;3053128;19;20238;-49
2022/09/14 02:36:49;;;;;;;;;;;;;;;15.98;100.00;98999.41;3052513;19;19923;-52
2022/09/14 02:38:09;;;;;;;;;;;;;;;16.01;100.00;99005.31;3053454;19;20007;-51
2022/09/14 02:39:32;;;;;;;;;;;;;;;16.02;100.00;99007.00;3047351;19;20364;-49
2022/09/14 02:40:44;;;;;;;;;;;;;;;16.02;100.00;98996.22;3042875;19;19923;-50
2022/09/14 02:42:01;;;;;;;;;;;;;;;16.03;100.00;99000.59;3042485;19;20048;-52
2022/09/14 02:43:11;;;;;;;;;;;;;;;16.06;100.00;99002.94;3047307;19;19972;-49
2022/09/14 02:44:16;;;;;;;;;;;;;;;16.05;100.00;99003.97;3047504;19;19922;-50
2022/09/14 02:45:34;;;;;;;;;;;;;;;16.06;100.00;99005.63;3047244;19;20010;-52
2022/09/14 02:46:37;;;;;;;;;;;;;;;16.05;100.00;99005.81;3050048;19;20028;-50
2022/09/14 02:47:44;;;;;;;;;;;;;;;16.08;100.00;99014.38;3052733;19;19922;-50
2022/09/14 02:49:07;;;;;;;;;;;;;;;16.09;100.00;99015.22;3052252;19;19918;-50
2022/09/14 02:50:12;;;;;;;;;;;;;;;16.10;100.00;99019.59;3053048;19;19939;-51
2022/09/14 02:51:23;;;;;;;;;;;;;;;16.11;100.00;99016.75;3051790;19;20275;-48
2022/09/14 02:52:41;;;;;;;;;;;;;;;16.09;100.00;99018.75;3053183;19;19982;-49
2022/09/14 02:53:44;;;;;;;;;;;;;;;16.10;100.00;99020.44;3052243;19;19923;-51
2022/09/14 02:55:09;;;;;;;;;;;;;;;16.07;100.00;99023.47;3052166;19;20059;-48
2022/09/14 02:56:11;;;;;;;;;;;;;;;16.09;100.00;99018.75;3052593;19;19970;-48
2022/09/14 02:57:15;;;;;;;;;;;;;;;16.07;100.00;99031.53;3053448;19;20311;-52
2022/09/14 02:58:17;;;;;;;;;;;;;;;16.08;100.00;99027.84;3053463;19;19915;-51
2022/09/14 02:59:21;;;;;;;;;;;;;;;16.06;100.00;99035.22;3052935;19;19974;-49
2022/09/14 03:00:23;;;;;;;;;;;;;;;16.05;100.00;99033.56;3052906;19;19942;-48
2022/09/14 03:01:27;;;;;;;;;;;;;;;16.03;100.00;99027.50;3051115;19;19978;-52
2022/09/14 03:02:29;;;;;;;;;;;;;;;16.03;100.00;99035.59;3042557;19;19918;-53
2022/09/14 03:03:34;;;;;;;;;;;;;;;16.04;100.00;99031.88;3041848;19;20738;-51
2022/09/14 03:04:36;;;;;;;;;;;;;;;16.02;100.00;99039.28;3043135;19;20950;-50
2022/09/14 03:05:40;;;;;;;;;;;;;;;16.02;100.00;99035.75;3047091;19;20429;-50
2022/09/14 03:06:42;;;;;;;;;;;;;;;16.01;100.00;99040.28;3047645;19;19967;-49
2022/09/14 03:07:47;;;;;;;;;;;;;;;16.03;100.00;99045.50;3046427;19;19923;-50
2022/09/14 03:08:48;;;;;;;;;;;;;;;16.03;100.00;99040.97;3047765;19;19958;-49
2022/09/14 03:09:53;;;;;;;;;;;;;;;16.03;100.00;99040.97;3052968;19;20244;-50
2022/09/14 03:10:55;;;;;;;;;;;;;;;16.04;100.00;99042.66;3053670;19;19918;-51
2022/09/14 03:12:00;;;;;;;;;;;;;;;16.04;100.00;99041.81;3052875;19;19987;-49
2022/09/14 03:13:01;;;;;;;;;;;;;;;16.05;100.00;99041.66;3053166;19;19922;-52
2022/09/14 03:14:06;;;;;;;;;;;;;;;16.04;100.00;99048.03;3053060;19;20089;-51
2022/09/14 03:15:08;;;;;;;;;;;;;;;16.03;100.00;99049.03;3053600;19;19982;-52
2022/09/14 03:16:13;;;;;;;;;;;;;;;16.01;100.00;99048.34;3052492;19;20226;-52
2022/09/14 03:17:15;;;;;;;;;;;;;;;16.00;100.00;99046.66;3053021;19;19936;-52
2022/09/14 03:18:20;;;;;;;;;;;;;;;15.98;100.00;99037.91;3053231;19;19932;-51
2022/09/14 03:19:21;;;;;;;;;;;;;;;15.98;100.00;99048.69;3053315;19;19943;-47
2022/09/14 03:20:27;;;;;;;;;;;;;;;15.99;100.00;99044.13;3051604;19;20266;-52
2022/09/14 03:21:29;;;;;;;;;;;;;;;15.98;100.00;99042.44;3052020;19;19986;-51
2022/09/14 03:22:34;;;;;;;;;;;;;;;15.98;100.00;99037.06;3052021;19;20604;-50
2022/09/14 03:23:42;;;;;;;;;;;;;;;15.97;100.00;99041.59;3053256;19;19990;-51
2022/09/14 03:24:44;;;;;;;;;;;;;;;15.96;100.00;99044.44;3042897;19;19933;-51
2022/09/14 03:25:48;;;;;;;;;;;;;;;15.95;100.00;99038.22;3043108;19;19986;-50
2022/09/14 03:26:51;;;;;;;;;;;;;;;15.95;100.00;99042.78;3042168;19;20275;-49
2022/09/14 03:27:56;;;;;;;;;;;;;;;15.89;100.00;99030.84;3046159;19;19923;-49
2022/09/14 03:28:58;;;;;;;;;;;;;;;15.90;100.00;99026.28;3046493;19;19922;-50
2022/09/14 03:30:02;;;;;;;;;;;;;;;15.95;100.00;99032.84;3047245;19;19927;-51
2022/09/14 03:31:05;;;;;;;;;;;;;;;15.95;100.00;99030.16;3044747;19;21845;-49
2022/09/14 03:32:11;;;;;;;;;;;;;;;15.95;100.00;99030.16;3052576;19;20383;-48
2022/09/14 03:33:14;;;;;;;;;;;;;;;15.95;100.00;99029.31;3052296;19;20015;-48
2022/09/14 03:34:18;;;;;;;;;;;;;;;15.91;100.00;99036.91;3052910;19;19951;-52
2022/09/14 03:35:20;;;;;;;;;;;;;;;15.89;100.00;99038.91;3052830;19;20386;-51
2022/09/14 03:36:25;;;;;;;;;;;;;;;15.89;100.00;99049.66;3052581;19;20017;-50
2022/09/14 03:37:27;;;;;;;;;;;;;;;15.88;100.00;99050.66;3052097;19;19942;-49
2022/09/14 03:38:31;;;;;;;;;;;;;;;15.89;100.00;99043.44;3053135;19;20330;-48
2022/09/14 03:39:33;;;;;;;;;;;;;;;15.89;100.00;99044.28;3053203;19;19943;-51
2022/09/14 03:40:37;;;;;;;;;;;;;;;15.90;100.00;99045.97;3051874;19;19918;-50
2022/09/14 03:41:39;;;;;;;;;;;;;;;15.90;100.00;99048.66;3052394;19;20004;-50
2022/09/14 03:42:44;;;;;;;;;;;;;;;15.91;100.00;99047.66;3052922;19;20002;-49
2022/09/14 03:43:46;;;;;;;;;;;;;;;15.90;100.00;99037.91;3053204;19;19926;-51
2022/09/14 03:44:51;;;;;;;;;;;;;;;15.90;100.00;99040.59;3051977;19;19927;-50
2022/09/14 03:45:53;;;;;;;;;;;;;;;15.91;100.00;99047.66;3052330;19;20635;-49
2022/09/14 03:46:57;;;;;;;;;;;;;;;15.91;100.00;99046.81;3045734;19;19926;-50
2022/09/14 03:48:00;;;;;;;;;;;;;;;15.89;100.00;99048.81;3043249;19;20410;-48
2022/09/14 03:49:04;;;;;;;;;;;;;;;15.88;100.00;99047.13;3042305;19;19922;-52
2022/09/14 03:50:07;;;;;;;;;;;;;;;15.85;100.00;99048.28;3042921;19;19923;-52
2022/09/14 03:51:12;;;;;;;;;;;;;;;15.83;100.00;99047.59;3046481;19;19983;-51
2022/09/14 03:52:13;;;;;;;;;;;;;;;15.79;100.00;99041.75;3045863;19;20480;-50
2022/09/14 03:53:18;;;;;;;;;;;;;;;15.78;100.00;99047.28;3046365;19;19926;-52
2022/09/14 03:54:20;;;;;;;;;;;;;;;15.75;100.00;99053.81;3051040;19;19911;-50
2022/09/14 03:55:24;;;;;;;;;;;;;;;15.75;100.00;99050.28;3052587;19;20270;-51
2022/09/14 03:56:26;;;;;;;;;;;;;;;15.74;100.00;99045.91;3053088;19;19923;-49
2022/09/14 03:57:31;;;;;;;;;;;;;;;15.71;100.00;99051.59;3051583;19;20375;-50
2022/09/14 03:58:33;;;;;;;;;;;;;;;15.70;100.00;99041.84;3052619;19;19987;-52
2022/09/14 03:59:38;;;;;;;;;;;;;;;15.71;100.00;99040.84;3052339;19;19919;-50
2022/09/14 04:00:44;;;;;;;;;;;;;;;15.70;100.00;99041.84;3051998;19;19926;-48
2022/09/14 04:01:48;;;;;;;;;;;;;;;15.70;100.00;99047.22;3052920;19;19986;-52
2022/09/14 04:02:50;;;;;;;;;;;;;;;15.70;100.00;99040.00;3052690;19;19927;-49
2022/09/14 04:03:55;;;;;;;;;;;;;;;15.68;100.00;99035.81;3052287;19;19919;-51
2022/09/14 04:04:57;;;;;;;;;;;;;;;15.67;100.00;99044.88;3052176;19;20358;-49
2022/09/14 04:06:04;;;;;;;;;;;;;;;15.66;100.00;99032.44;3052034;19;19918;-51
2022/09/14 04:07:06;;;;;;;;;;;;;;;15.64;100.00;99034.44;3052985;19;19926;-50
2022/09/14 04:08:10;;;;;;;;;;;;;;;15.64;100.00;99034.44;3052623;19;20020;-49
2022/09/14 04:09:15;;;;;;;;;;;;;;;15.62;100.00;99031.06;3048137;19;20361;-50
2022/09/14 04:10:17;;;;;;;;;;;;;;;15.61;100.00;99034.75;3041785;19;20726;-52
2022/09/14 04:11:22;;;;;;;;;;;;;;;15.54;100.00;99023.78;3042466;19;20359;-53
2022/09/14 04:12:24;;;;;;;;;;;;;;;15.57;100.00;99034.25;3041478;19;19997;-50
2022/09/14 04:13:28;;;;;;;;;;;;;;;15.56;100.00;99026.34;3044927;19;19943;-51
2022/09/14 04:14:30;;;;;;;;;;;;;;;15.54;100.00;99033.69;3045381;19;19936;-48
2022/09/14 04:15:34;;;;;;;;;;;;;;;15.49;100.00;99032.31;3047046;19;19926;-49
2022/09/14 04:16:36;;;;;;;;;;;;;;;15.46;100.00;99027.25;3048700;19;20353;-51
2022/09/14 04:17:41;;;;;;;;;;;;;;;15.43;100.00;99029.44;3052821;19;19982;-49
2022/09/14 04:18:43;;;;;;;;;;;;;;;15.38;100.00;99019.16;3053030;19;20334;-49
2022/09/14 04:19:48;;;;;;;;;;;;;;;15.35;100.00;99029.38;3050781;19;20005;-51
2022/09/14 04:20:53;;;;;;;;;;;;;;;15.29;100.00;99030.91;3050119;19;19966;-52
2022/09/14 04:21:57;;;;;;;;;;;;;;;15.26;100.00;99020.44;3050567;19;19918;-53
2022/09/14 04:22:59;;;;;;;;;;;;;;;15.24;100.00;99021.59;3050310;19;19982;-51
2022/09/14 04:24:04;;;;;;;;;;;;;;;15.22;100.00;99019.06;3050486;19;19996;-48
2022/09/14 04:25:22;;;;;;;;;;;;;;;15.19;100.00;99024.78;3050857;19;19947;-48
2022/09/14 04:26:28;;;;;;;;;;;;;;;15.17;100.00;99026.78;3049904;19;19923;-48
2022/09/14 04:27:30;;;;;;;;;;;;;;;15.17;100.00;99015.19;3049373;19;19926;-49
2022/09/14 04:28:34;;;;;;;;;;;;;;;15.16;100.00;99018.88;3049965;19;20015;-48
2022/09/14 04:29:36;;;;;;;;;;;;;;;15.16;100.00;99022.41;3050599;19;19923;-49
2022/09/14 04:30:40;;;;;;;;;;;;;;;15.17;100.00;99016.03;3049236;19;19955;-50
2022/09/14 04:31:42;;;;;;;;;;;;;;;15.18;100.00;99027.63;3044981;19;19919;-50
2022/09/14 04:32:46;;;;;;;;;;;;;;;15.19;100.00;99022.09;3041238;19;19919;-50
2022/09/14 04:33:50;;;;;;;;;;;;;;;15.20;100.00;99026.47;3041316;19;19926;-50
2022/09/14 04:34:54;;;;;;;;;;;;;;;15.25;100.00;99023.28;3041680;19;20204;-51
2022/09/14 04:35:57;;;;;;;;;;;;;;;15.28;100.00;99021.13;3045466;19;19942;-52
2022/09/14 04:37:01;;;;;;;;;;;;;;;15.35;100.00;99019.47;3046259;19;19919;-49
2022/09/14 04:38:03;;;;;;;;;;;;;;;15.41;100.00;99010.78;3045837;19;19929;-48
2022/09/14 04:39:08;;;;;;;;;;;;;;;15.49;100.00;99018.88;3048234;19;19922;-52
2022/09/14 04:40:10;;;;;;;;;;;;;;;15.56;100.00;99018.28;3051900;19;19918;-52
2022/09/14 04:41:16;;;;;;;;;;;;;;;15.61;100.00;99019.47;3051898;19;19915;-51
2022/09/14 04:42:18;;;;;;;;;;;;;;;15.68;100.00;99025.06;3053789;19;19923;-51
2022/09/14 04:43:22;;;;;;;;;;;;;;;15.73;100.00;99020.00;3055016;19;19970;-50
2022/09/14 04:44:24;;;;;;;;;;;;;;;15.78;100.00;99020.38;3055655;19;19919;-51
2022/09/14 04:45:29;;;;;;;;;;;;;;;15.82;100.00;99027.09;3052842;19;20467;-48
2022/09/14 04:46:33;;;;;;;;;;;;;;;15.87;100.00;99024.78;3054932;19;20328;-49
2022/09/14 04:47:38;;;;;;;;;;;;;;;15.92;100.00;99024.28;3055139;19;19923;-48
2022/09/14 04:48:40;;;;;;;;;;;;;;;15.94;100.00;99031.16;3055525;19;20205;-49
2022/09/14 04:49:45;;;;;;;;;;;;;;;15.95;100.00;99026.63;3054285;19;19923;-52
2022/09/14 04:50:46;;;;;;;;;;;;;;;16.01;100.00;99037.59;3053946;19;19982;-52
2022/09/14 04:51:51;;;;;;;;;;;;;;;16.02;100.00;99043.81;3055942;19;19927;-52
2022/09/14 04:52:53;;;;;;;;;;;;;;;16.04;100.00;99044.50;3056403;19;19919;-50
2022/09/14 04:53:58;;;;;;;;;;;;;;;16.07;100.00;99055.75;3053724;19;19987;-51
2022/09/14 04:55:00;;;;;;;;;;;;;;;16.12;100.00;99057.97;3043549;19;20258;-51
2022/09/14 04:56:05;;;;;;;;;;;;;;;16.14;100.00;99051.41;3042623;19;19926;-50
2022/09/14 04:57:07;;;;;;;;;;;;;;;16.20;100.00;99058.81;3044343;19;19950;-48
2022/09/14 04:58:12;;;;;;;;;;;;;;;16.24;100.00;99053.94;3046941;19;19919;-50
2022/09/14 04:59:16;;;;;;;;;;;;;;;16.30;100.00;99068.63;3047685;19;19947;-49
2022/09/14 05:00:18;;;;;;;;;;;;;;;16.35;100.00;99071.63;3047907;19;19954;-51
2022/09/14 05:01:24;;;;;;;;;;;;;;;16.40;100.00;99063.91;3050814;19;20217;-52
2022/09/14 05:02:26;;;;;;;;;;;;;;;16.48;100.00;99066.59;3054838;19;20342;-49
2022/09/14 05:03:31;;;;;;;;;;;;;;;16.58;100.00;99070.81;3054951;19;19926;-49
2022/09/14 05:04:33;;;;;;;;;;;;;;;16.71;100.00;99077.59;3053538;19;19975;-51
2022/09/14 05:05:38;;;;;;;;;;;;;;;16.83;100.00;99066.31;3053650;19;19939;-56
2022/09/14 05:06:45;;;;;;;;;;;;;;;16.92;100.00;99065.28;3054432;19;20342;-53
2022/09/14 05:07:49;;;;;;;;;;;;;;;17.06;100.00;99076.41;3054484;19;20274;-54
2022/09/14 05:08:51;;;;;;;;;;;;;;;17.13;100.00;99088.19;3054675;19;19922;-51
2022/09/14 05:09:56;;;;;;;;;;;;;;;17.18;100.00;99088.50;3055092;19;20388;-50
2022/09/14 05:10:58;;;;;;;;;;;;;;;17.19;100.00;99098.28;3053312;19;19918;-52
2022/09/14 05:12:02;;;;;;;;;;;;;;;17.19;100.00;99109.06;3054595;19;19990;-50
2022/09/14 05:13:04;;;;;;;;;;;;;;;17.21;100.00;99107.06;3054824;19;20439;-50
2022/09/14 05:14:08;;;;;;;;;;;;;;;17.23;100.00;99113.13;3054972;19;20287;-50
2022/09/14 05:15:10;;;;;;;;;;;;;;;17.25;100.00;99111.09;3054576;19;19951;-53
2022/09/14 05:16:21;;;;;;;;;;;;;;;17.26;100.00;99110.94;3050016;19;20290;-51
2022/09/14 05:17:23;;;;;;;;;;;;;;;17.29;100.00;99113.28;3042016;19;19952;-53
2022/09/14 05:18:28;;;;;;;;;;;;;;;17.35;100.00;99124.41;3042626;19;20036;-56
2022/09/14 05:19:30;;;;;;;;;;;;;;;17.39;100.00;99120.34;3041523;19;19922;-48
2022/09/14 05:20:35;;;;;;;;;;;;;;;17.45;100.00;99120.50;3045887;19;19919;-54
2022/09/14 05:21:39;;;;;;;;;;;;;;;17.50;100.00;99118.13;3046022;19;20441;-52
2022/09/14 05:22:44;;;;;;;;;;;;;;;17.56;100.00;99122.84;3046772;19;19923;-48
2022/09/14 05:23:46;;;;;;;;;;;;;;;17.62;100.00;99130.25;3047172;19;19937;-49
2022/09/14 05:24:50;;;;;;;;;;;;;;;17.69;100.00;99132.28;3053089;19;20215;-52
2022/09/14 05:25:52;;;;;;;;;;;;;;;17.80;100.00;99129.19;3052872;19;20261;-52
2022/09/14 05:26:57;;;;;;;;;;;;;;;17.92;100.00;99135.91;3052745;19;19955;-50
2022/09/14 05:28:02;;;;;;;;;;;;;;;18.04;100.00;99137.22;3052660;19;19926;-52
2022/09/14 05:29:07;;;;;;;;;;;;;;;18.13;100.00;99143.41;3052456;19;19922;-51
2022/09/14 05:30:09;;;;;;;;;;;;;;;18.18;100.00;99149.97;3052546;19;20346;-51
2022/09/14 05:31:15;;;;;;;;;;;;;;;18.21;100.00;99149.63;3052283;19;19923;-48
2022/09/14 05:32:17;;;;;;;;;;;;;;;18.21;100.00;99160.44;3053412;19;19929;-52
2022/09/14 05:33:22;;;;;;;;;;;;;;;18.19;100.00;99161.63;3051592;19;20347;-54
2022/09/14 05:34:24;;;;;;;;;;;;;;;18.16;100.00;99167.38;3052751;19;19919;-49